createdAt,value
2019-05-17T00:01:46.766Z,9.60
2019-05-17T00:04:19.554Z,9.20
2019-05-17T00:06:52.963Z,9.33
2019-05-17T00:09:26.759Z,11.17
2019-05-17T00:12:00.307Z,9.40
2019-05-17T00:14:33.724Z,9.77
2019-05-17T00:17:07.242Z,10.27
2019-05-17T00:19:40.659Z,10.77
2019-05-17T00:22:16.526Z,10.40
2019-05-17T00:24:49.700Z,11.27
2019-05-17T00:27:23.139Z,12.77
2019-05-17T00:29:57.153Z,12.17
2019-05-17T00:32:30.981Z,10.17
2019-05-17T00:35:07.372Z,12.77
2019-05-17T00:37:41.223Z,10.40
2019-05-17T00:40:16.654Z,12.43
2019-05-17T00:42:50.500Z,12.13
2019-05-17T00:45:23.923Z,10.03
2019-05-17T00:47:57.382Z,10.93
2019-05-17T00:50:30.848Z,10.97
2019-05-17T00:53:04.274Z,12.40
2019-05-17T00:55:37.703Z,10.73
2019-05-17T00:58:11.135Z,11.33
2019-05-17T01:00:47.671Z,13.03
2019-05-17T01:03:19.702Z,11.03
2019-05-17T01:05:53.259Z,11.57
2019-05-17T01:08:26.738Z,11.13
2019-05-17T01:11:00.191Z,11.93
2019-05-17T01:13:33.626Z,12.63
2019-05-17T01:16:07.420Z,11.37
2019-05-17T01:18:40.959Z,11.70
2019-05-17T01:21:14.371Z,11.20
2019-05-17T01:23:47.811Z,12.77
2019-05-17T01:26:21.272Z,13.07
2019-05-17T01:28:54.700Z,12.33
2019-05-17T01:31:28.151Z,13.00
2019-05-17T01:34:01.623Z,13.17
2019-05-17T01:36:37.011Z,12.47
2019-05-17T01:39:17.771Z,15.73
2019-05-17T01:41:46.803Z,12.93
2019-05-17T01:44:20.675Z,13.17
2019-05-17T01:46:54.096Z,14.13
2019-05-17T01:49:27.539Z,12.80
2019-05-17T01:52:00.964Z,16.57
2019-05-17T01:54:36.282Z,12.57
2019-05-17T01:57:09.821Z,13.80
2019-05-17T01:59:43.260Z,12.93
2019-05-17T02:02:18.316Z,14.77
2019-05-17T02:04:52.723Z,15.03
2019-05-17T02:07:26.758Z,13.63
2019-05-17T02:10:00.356Z,13.03
2019-05-17T02:12:33.779Z,13.93
2019-05-17T02:15:11.478Z,14.77
2019-05-17T02:17:46.833Z,14.33
2019-05-17T02:20:20.920Z,14.87
2019-05-17T02:22:56.373Z,14.97
2019-05-17T02:25:29.507Z,15.30
2019-05-17T02:28:02.939Z,15.93
2019-05-17T02:30:36.388Z,16.33
2019-05-17T02:33:12.656Z,16.90
2019-05-17T02:35:45.235Z,16.33
2019-05-17T02:38:18.725Z,15.13
2019-05-17T02:40:53.533Z,15.80
2019-05-17T02:43:27.264Z,16.50
2019-05-17T02:46:03.621Z,15.17
2019-05-17T02:48:35.867Z,15.47
2019-05-17T02:51:12.793Z,13.53
2019-05-17T02:53:44.721Z,16.30
2019-05-17T02:56:18.136Z,17.50
2019-05-17T02:58:53.297Z,15.87
2019-05-17T03:01:26.731Z,14.80
2019-05-17T03:04:03.582Z,16.00
2019-05-17T03:06:35.304Z,15.27
2019-05-17T03:09:08.744Z,17.13
2019-05-17T03:11:42.907Z,14.97
2019-05-17T03:14:16.682Z,17.47
2019-05-17T03:16:53.376Z,15.83
2019-05-17T03:19:25.268Z,18.23
2019-05-17T03:21:58.708Z,13.93
2019-05-17T03:24:33.248Z,15.03
2019-05-17T03:27:07.047Z,15.87
2019-05-17T03:29:42.534Z,17.13
2019-05-17T03:32:17.604Z,16.90
2019-05-17T03:34:55.878Z,15.63
2019-05-17T03:37:32.905Z,16.93
2019-05-17T03:40:04.775Z,15.87
2019-05-17T03:42:37.253Z,16.57
2019-05-17T03:45:13.635Z,16.87
2019-05-17T03:47:46.341Z,17.40
2019-05-17T03:50:22.467Z,17.97
2019-05-17T03:52:55.786Z,17.47
2019-05-17T03:55:32.796Z,17.47
2019-05-17T03:58:04.381Z,17.17
2019-05-17T04:00:37.812Z,18.80
2019-05-17T04:03:13.552Z,18.10
2019-05-17T04:05:46.402Z,19.03
2019-05-17T04:08:22.691Z,19.70
2019-05-17T04:10:54.991Z,17.67
2019-05-17T04:13:28.417Z,19.17
2019-05-17T04:16:05.721Z,17.23
2019-05-17T04:18:37.092Z,20.73
2019-05-17T04:21:12.563Z,20.03
2019-05-17T04:23:45.676Z,19.50
2019-05-17T04:26:19.113Z,20.13
2019-05-17T04:28:53.407Z,20.80
2019-05-17T04:31:30.484Z,19.93
2019-05-17T04:34:03.065Z,20.40
2019-05-17T04:36:37.074Z,19.87
2019-05-17T04:39:13.098Z,21.53
2019-05-17T04:41:50.141Z,20.13
2019-05-17T04:44:23.041Z,20.57
2019-05-17T04:46:55.976Z,20.13
2019-05-17T04:49:32.857Z,21.83
2019-05-17T04:52:04.690Z,22.33
2019-05-17T04:54:38.114Z,21.50
2019-05-17T04:57:13.110Z,22.17
2019-05-17T04:59:46.857Z,20.17
2019-05-17T05:02:23.394Z,20.90
2019-05-17T05:04:55.449Z,21.43
2019-05-17T05:07:28.887Z,22.87
2019-05-17T05:10:03.239Z,20.40
2019-05-17T05:12:37.021Z,23.33
2019-05-17T05:15:12.216Z,21.83
2019-05-17T05:17:46.072Z,20.80
2019-05-17T05:20:21.996Z,20.20
2019-05-17T05:22:54.725Z,20.87
2019-05-17T05:25:28.144Z,21.03
2019-05-17T05:28:02.447Z,22.80
2019-05-17T05:30:36.191Z,23.50
2019-05-17T05:33:09.621Z,22.23
2019-05-17T05:35:43.056Z,23.60
2019-05-17T05:38:16.479Z,22.87
2019-05-17T05:40:52.001Z,24.03
2019-05-17T05:43:25.071Z,23.57
2019-05-17T05:45:58.548Z,22.77
2019-05-17T05:48:32.640Z,23.70
2019-05-17T05:51:06.964Z,23.97
2019-05-17T05:53:41.954Z,21.30
2019-05-17T05:56:15.604Z,22.17
2019-05-17T05:58:49.028Z,22.10
2019-05-17T06:01:22.465Z,22.20
2019-05-17T06:03:55.988Z,21.80
2019-05-17T06:06:29.456Z,24.43
2019-05-17T06:09:04.597Z,25.63
2019-05-17T06:11:38.027Z,29.67
2019-05-17T06:14:12.322Z,23.67
2019-05-17T06:16:47.687Z,24.03
2019-05-17T06:19:22.384Z,24.23
2019-05-17T06:21:56.382Z,22.13
2019-05-17T06:24:31.805Z,23.40
2019-05-17T06:27:05.443Z,23.57
2019-05-17T06:29:38.860Z,22.83
2019-05-17T06:32:12.300Z,21.33
2019-05-17T06:34:45.720Z,24.77
2019-05-17T06:37:19.155Z,21.30
2019-05-17T06:39:53.555Z,22.00
2019-05-17T06:42:38.325Z,21.37
2019-05-17T06:45:02.345Z,21.20
2019-05-17T06:47:36.047Z,21.13
2019-05-17T06:50:09.845Z,23.10
2019-05-17T06:52:44.104Z,23.20
2019-05-17T06:55:17.923Z,22.50
2019-05-17T06:57:52.805Z,21.07
2019-05-17T07:00:29.791Z,23.50
2019-05-17T07:03:02.396Z,19.47
2019-05-17T07:05:43.399Z,20.57
2019-05-17T07:08:16.831Z,20.23
2019-05-17T07:10:50.392Z,20.33
2019-05-17T07:13:23.927Z,21.00
2019-05-17T07:15:59.521Z,20.27
2019-05-17T07:18:32.513Z,21.27
2019-05-17T07:21:05.931Z,21.17
2019-05-17T07:23:40.037Z,21.83
2019-05-17T07:26:13.526Z,21.47
2019-05-17T07:28:47.063Z,21.83
2019-05-17T07:31:23.134Z,21.90
2019-05-17T07:33:55.644Z,21.37
2019-05-17T07:36:30.667Z,23.03
2019-05-17T07:39:05.420Z,22.00
2019-05-17T07:41:40.109Z,22.27
2019-05-17T07:44:13.843Z,23.93
2019-05-17T07:46:51.740Z,23.70
2019-05-17T07:49:22.431Z,21.40
2019-05-17T07:51:55.870Z,22.40
2019-05-17T07:54:30.279Z,23.37
2019-05-17T07:57:03.995Z,22.10
2019-05-17T07:59:39.604Z,21.43
2019-05-17T08:02:12.583Z,20.47
2019-05-17T08:04:46.004Z,19.60
2019-05-17T08:07:19.710Z,25.77
2019-05-17T08:09:53.515Z,20.00
2019-05-17T08:12:26.964Z,25.00
2019-05-17T08:15:00.459Z,19.80
2019-05-17T08:17:33.893Z,18.13
2019-05-17T08:20:10.079Z,18.60
2019-05-17T08:22:44.195Z,19.27
2019-05-17T08:25:20.019Z,18.47
2019-05-17T08:27:53.027Z,18.33
2019-05-17T08:30:26.692Z,19.17
2019-05-17T08:33:00.886Z,19.00
2019-05-17T08:35:34.723Z,16.90
2019-05-17T08:38:10.418Z,20.83
2019-05-17T08:40:43.308Z,18.57
2019-05-17T08:43:16.743Z,19.50
2019-05-17T08:45:50.274Z,19.40
2019-05-17T08:48:23.775Z,21.43
2019-05-17T08:50:57.209Z,19.27
2019-05-17T08:53:30.678Z,20.10
2019-05-17T08:56:04.208Z,18.67
2019-05-17T08:58:40.153Z,19.77
2019-05-17T09:01:12.791Z,22.57
2019-05-17T09:03:46.255Z,20.23
2019-05-17T09:06:19.944Z,19.67
2019-05-17T09:08:53.887Z,18.93
2019-05-17T09:11:27.302Z,17.53
2019-05-17T09:14:02.016Z,19.43
2019-05-17T09:16:36.031Z,17.07
2019-05-17T09:19:10.158Z,22.10
2019-05-17T09:21:43.878Z,17.73
2019-05-17T09:24:19.492Z,17.73
2019-05-17T09:26:53.079Z,16.00
2019-05-17T09:29:26.519Z,16.57
2019-05-17T09:32:00.105Z,16.70
2019-05-17T09:34:33.742Z,15.80
2019-05-17T09:37:09.731Z,16.90
2019-05-17T09:39:42.323Z,16.10
2019-05-17T09:42:15.744Z,16.63
2019-05-17T09:44:49.673Z,16.00
2019-05-17T09:47:23.285Z,14.17
2019-05-17T09:49:56.720Z,13.93
2019-05-17T09:52:30.216Z,13.60
2019-05-17T09:55:04.619Z,13.03
2019-05-17T09:57:40.493Z,13.10
2019-05-17T10:00:13.417Z,13.87
2019-05-17T10:02:46.830Z,13.10
2019-05-17T10:05:20.407Z,15.40
2019-05-17T10:07:53.876Z,15.63
2019-05-17T10:10:27.319Z,14.10
2019-05-17T10:13:00.756Z,14.67
2019-05-17T10:15:34.285Z,15.17
2019-05-17T10:18:07.715Z,16.47
2019-05-17T10:20:41.175Z,18.73
2019-05-17T10:23:14.662Z,14.07
2019-05-17T10:25:48.141Z,13.47
2019-05-17T10:28:21.585Z,13.37
2019-05-17T10:30:54.999Z,15.40
2019-05-17T10:33:29.462Z,15.70
2019-05-17T10:36:03.250Z,14.77
2019-05-17T10:38:36.681Z,14.57
2019-05-17T10:41:10.327Z,15.33
2019-05-17T10:43:43.788Z,12.83
2019-05-17T10:46:17.220Z,14.87
2019-05-17T10:48:50.659Z,12.63
2019-05-17T10:51:24.156Z,13.60
2019-05-17T10:53:59.807Z,12.00
2019-05-17T10:56:32.731Z,12.03
2019-05-17T10:59:06.167Z,11.37
2019-05-17T11:01:39.594Z,11.43
2019-05-17T11:04:13.020Z,11.47
2019-05-17T11:06:46.440Z,10.60
2019-05-17T11:09:20.649Z,12.43
2019-05-17T11:11:54.232Z,12.27
2019-05-17T11:14:27.663Z,10.00
2019-05-17T11:17:01.094Z,10.07
2019-05-17T11:19:34.523Z,12.57
2019-05-17T11:22:07.996Z,9.40
2019-05-17T11:24:41.435Z,9.17
2019-05-17T11:27:14.852Z,9.63
2019-05-17T11:29:48.280Z,10.23
2019-05-17T11:32:21.708Z,8.63
2019-05-17T11:34:55.202Z,8.60
2019-05-17T11:37:28.626Z,9.10
2019-05-17T11:40:02.142Z,15.23
2019-05-17T11:42:35.566Z,10.40
2019-05-17T11:45:09.266Z,11.47
2019-05-17T11:47:42.680Z,9.87
2019-05-17T11:50:16.450Z,8.40
2019-05-17T11:52:49.864Z,9.33
2019-05-17T11:55:23.301Z,9.43
2019-05-17T11:57:56.710Z,9.20
2019-05-17T12:00:30.791Z,9.93
2019-05-17T12:03:04.272Z,8.33
2019-05-17T12:05:37.706Z,8.53
2019-05-17T12:08:11.149Z,7.87
2019-05-17T12:10:44.700Z,8.30
2019-05-17T12:13:18.542Z,9.60
2019-05-17T12:15:51.972Z,7.30
2019-05-17T12:18:25.407Z,9.13
2019-05-17T12:20:58.951Z,7.40
2019-05-17T12:23:32.375Z,8.23
2019-05-17T12:26:05.807Z,7.30
2019-05-17T12:28:39.239Z,7.07
2019-05-17T12:31:12.675Z,9.17
2019-05-17T12:33:46.088Z,7.97
2019-05-17T12:36:19.520Z,8.20
2019-05-17T12:38:52.940Z,7.97
2019-05-17T12:41:26.367Z,7.50
2019-05-17T12:43:59.790Z,7.27
2019-05-17T12:46:33.219Z,7.97
2019-05-17T12:49:06.639Z,6.70
2019-05-17T12:51:40.077Z,8.57
2019-05-17T12:54:13.487Z,6.20
2019-05-17T12:56:46.925Z,6.13
2019-05-17T12:59:20.354Z,7.13
2019-05-17T13:01:53.856Z,7.67
2019-05-17T13:04:27.284Z,7.23
2019-05-17T13:07:00.708Z,7.43
2019-05-17T13:09:34.124Z,8.10
2019-05-17T13:12:07.575Z,6.50
2019-05-17T13:14:40.999Z,6.50
2019-05-17T13:17:14.428Z,6.67
2019-05-17T13:19:47.860Z,6.37
2019-05-17T13:22:21.282Z,6.97
2019-05-17T13:24:54.714Z,6.30
2019-05-17T13:27:28.138Z,6.87
2019-05-17T13:30:01.569Z,5.87
2019-05-17T13:32:34.979Z,5.43
2019-05-17T13:35:09.655Z,6.73
2019-05-17T13:37:43.106Z,4.70
2019-05-17T13:40:16.855Z,5.43
2019-05-17T13:42:50.384Z,5.73
2019-05-17T13:45:23.815Z,6.30
2019-05-17T13:47:57.233Z,5.17
2019-05-17T13:50:30.663Z,5.10
2019-05-17T13:53:04.094Z,5.23
2019-05-17T13:55:37.528Z,5.13
2019-05-17T13:58:11.008Z,3.93
2019-05-17T14:00:44.819Z,6.37
2019-05-17T14:03:18.299Z,5.80
2019-05-17T14:05:51.731Z,4.53
2019-05-17T14:08:25.214Z,5.53
2019-05-17T14:10:58.651Z,5.23
2019-05-17T14:13:32.067Z,4.67
2019-05-17T14:16:05.544Z,4.00
2019-05-17T14:18:38.963Z,7.47
2019-05-17T14:21:12.399Z,4.47
2019-05-17T14:23:45.819Z,5.40
2019-05-17T14:26:19.248Z,4.23
2019-05-17T14:28:52.663Z,3.77
2019-05-17T14:31:26.084Z,4.30
2019-05-17T14:33:59.504Z,5.63
2019-05-17T14:36:33.025Z,4.70
2019-05-17T14:39:07.518Z,5.37
2019-05-17T14:41:41.071Z,4.07
2019-05-17T14:44:14.545Z,3.47
2019-05-17T14:46:47.992Z,3.30
2019-05-17T14:49:21.405Z,3.73
2019-05-17T14:51:54.832Z,3.17
2019-05-17T14:54:28.239Z,5.83
2019-05-17T14:57:01.676Z,3.10
2019-05-17T14:59:35.880Z,5.13
2019-05-17T15:02:09.316Z,5.50
2019-05-17T15:04:42.794Z,3.57
2019-05-17T15:07:16.308Z,4.00
2019-05-17T15:09:49.746Z,4.07
2019-05-17T15:12:28.520Z,3.73
2019-05-17T15:14:58.360Z,4.30
2019-05-17T15:17:34.984Z,4.10
2019-05-17T15:20:07.988Z,5.77
2019-05-17T15:22:41.423Z,3.70
2019-05-17T15:25:14.911Z,3.97
2019-05-17T15:27:48.335Z,4.43
2019-05-17T15:30:21.817Z,3.50
2019-05-17T15:32:55.255Z,3.50
2019-05-17T15:35:28.659Z,3.33
2019-05-17T15:38:02.104Z,3.87
2019-05-17T15:40:35.615Z,4.20
2019-05-17T15:43:09.107Z,3.63
2019-05-17T15:45:42.525Z,3.40
2019-05-17T15:48:15.951Z,3.57
2019-05-17T15:50:49.372Z,4.00
2019-05-17T15:53:22.801Z,4.10
2019-05-17T15:55:56.236Z,3.50
2019-05-17T15:58:29.660Z,3.50
2019-05-17T16:01:03.080Z,3.40
2019-05-17T16:03:36.505Z,3.33
2019-05-17T16:06:09.932Z,3.40
2019-05-17T16:08:43.350Z,4.80
2019-05-17T16:11:16.856Z,3.60
2019-05-17T16:13:50.343Z,3.27
2019-05-17T16:16:23.784Z,3.67
2019-05-17T16:18:57.196Z,3.27
2019-05-17T16:21:30.631Z,7.00
2019-05-17T16:24:04.119Z,3.57
2019-05-17T16:26:37.556Z,3.00
2019-05-17T16:29:11.102Z,3.33
2019-05-17T16:31:44.559Z,2.67
2019-05-17T16:34:18.051Z,3.03
2019-05-17T16:36:51.485Z,3.40
2019-05-17T16:39:24.911Z,3.00
2019-05-17T16:41:58.328Z,3.40
2019-05-17T16:44:31.744Z,4.13
2019-05-17T16:47:05.278Z,2.83
2019-05-17T16:49:38.756Z,3.10
2019-05-17T16:52:12.187Z,3.07
2019-05-17T16:54:45.600Z,3.57
2019-05-17T16:57:19.029Z,3.20
2019-05-17T16:59:52.443Z,2.70
2019-05-17T17:02:25.871Z,2.53
2019-05-17T17:04:59.284Z,2.60
2019-05-17T17:07:32.703Z,2.83
2019-05-17T17:10:06.460Z,3.30
2019-05-17T17:12:39.891Z,2.63
2019-05-17T17:15:13.644Z,3.17
2019-05-17T17:17:47.074Z,4.70
2019-05-17T17:20:21.423Z,2.47
2019-05-17T17:22:54.854Z,4.27
2019-05-17T17:25:28.264Z,3.13
2019-05-17T17:28:01.716Z,3.07
2019-05-17T17:30:35.199Z,3.17
2019-05-17T17:33:08.670Z,2.53
2019-05-17T17:35:42.157Z,3.20
2019-05-17T17:38:15.588Z,4.80
2019-05-17T17:40:49.005Z,3.07
2019-05-17T17:43:22.439Z,3.10
2019-05-17T17:45:55.855Z,3.40
2019-05-17T17:48:29.286Z,4.20
2019-05-17T17:51:02.700Z,4.23
2019-05-17T17:53:36.125Z,3.33
2019-05-17T17:56:09.546Z,2.77
2019-05-17T17:58:42.984Z,2.67
2019-05-17T18:01:16.412Z,4.23
2019-05-17T18:03:49.839Z,4.83
2019-05-17T18:06:23.264Z,4.17
2019-05-17T18:08:56.683Z,3.93
2019-05-17T18:11:30.105Z,3.43
2019-05-17T18:14:13.001Z,3.07
2019-05-17T18:16:38.811Z,4.60
2019-05-17T18:19:12.226Z,3.10
2019-05-17T18:21:45.803Z,5.73
2019-05-17T18:24:19.304Z,3.00
2019-05-17T18:26:52.715Z,3.60
2019-05-17T18:29:26.177Z,4.67
2019-05-17T18:31:59.595Z,3.27
2019-05-17T18:34:33.024Z,3.30
2019-05-17T18:37:06.540Z,6.33
2019-05-17T18:39:40.037Z,4.90
2019-05-17T18:42:13.583Z,3.80
2019-05-17T18:44:47.023Z,4.87
2019-05-17T18:47:20.439Z,5.00
2019-05-17T18:49:53.871Z,6.90
2019-05-17T18:52:27.320Z,5.13
2019-05-17T18:55:00.747Z,3.70
2019-05-17T18:57:34.167Z,5.50
2019-05-17T19:00:08.120Z,4.73
2019-05-17T19:02:41.551Z,3.90
2019-05-17T19:05:16.816Z,3.67
2019-05-17T19:07:50.243Z,2.70
2019-05-17T19:10:23.736Z,2.00
2019-05-17T19:12:57.176Z,2.23
2019-05-17T19:15:30.582Z,1.90
2019-05-17T19:18:04.184Z,1.77
2019-05-17T19:20:37.591Z,1.80
2019-05-17T19:23:11.024Z,2.20
2019-05-17T19:25:44.456Z,2.23
2019-05-17T19:28:17.940Z,1.70
2019-05-17T19:30:51.364Z,3.13
2019-05-17T19:33:24.806Z,2.60
2019-05-17T19:35:58.228Z,2.03
2019-05-17T19:38:31.655Z,4.03
2019-05-17T19:41:05.075Z,5.43
2019-05-17T19:43:38.500Z,1.83
2019-05-17T19:46:11.920Z,2.03
2019-05-17T19:48:45.364Z,2.30
2019-05-17T19:51:18.776Z,2.13
2019-05-17T19:53:52.203Z,1.77
2019-05-17T19:56:25.620Z,4.50
2019-05-17T19:58:59.048Z,1.63
2019-05-17T20:01:32.487Z,2.03
2019-05-17T20:04:05.980Z,2.07
2019-05-17T20:06:39.391Z,1.53
2019-05-17T20:09:12.818Z,4.27
2019-05-17T20:11:46.236Z,6.17
2019-05-17T20:14:19.732Z,2.07
2019-05-17T20:16:53.139Z,3.33
2019-05-17T20:19:26.573Z,2.33
2019-05-17T20:21:59.984Z,2.13
2019-05-17T20:24:33.443Z,2.40
2019-05-17T20:27:06.863Z,3.03
2019-05-17T20:29:40.289Z,3.17
2019-05-17T20:32:13.699Z,2.60
2019-05-17T20:34:47.126Z,2.37
2019-05-17T20:37:20.627Z,2.60
2019-05-17T20:39:54.056Z,2.33
2019-05-17T20:42:27.480Z,3.53
2019-05-17T20:45:00.901Z,2.30
2019-05-17T20:47:34.312Z,2.30
2019-05-17T20:50:09.592Z,3.67
2019-05-17T20:52:43.087Z,3.37
2019-05-17T20:55:16.579Z,3.20
2019-05-17T20:57:50.003Z,3.00
2019-05-17T21:00:23.508Z,2.40
2019-05-17T21:02:56.927Z,3.37
2019-05-17T21:05:30.360Z,2.77
2019-05-17T21:08:03.795Z,4.27
2019-05-17T21:10:37.287Z,2.80
2019-05-17T21:13:10.702Z,3.23
2019-05-17T21:15:47.948Z,3.10
2019-05-17T21:18:19.327Z,4.13
2019-05-17T21:20:52.760Z,5.30
2019-05-17T21:23:26.166Z,6.87
2019-05-17T21:25:59.604Z,3.03
2019-05-17T21:28:33.033Z,2.93
2019-05-17T21:31:08.137Z,2.43
2019-05-17T21:33:41.763Z,2.67
2019-05-17T21:36:15.195Z,3.63
2019-05-17T21:38:48.607Z,4.17
2019-05-17T21:41:22.105Z,2.50
2019-05-17T21:43:55.547Z,4.13
2019-05-17T21:46:28.963Z,2.50
2019-05-17T21:49:02.404Z,4.00
2019-05-17T21:51:35.820Z,2.83
2019-05-17T21:54:09.251Z,2.77
2019-05-17T21:56:42.667Z,3.30
2019-05-17T21:59:16.100Z,2.80
2019-05-17T22:01:49.784Z,3.63
2019-05-17T22:04:23.217Z,3.63
2019-05-17T22:06:56.693Z,4.13
2019-05-17T22:09:30.153Z,3.70
2019-05-17T22:12:05.257Z,3.47
2019-05-17T22:14:38.756Z,2.67
2019-05-17T22:17:12.169Z,2.93
2019-05-17T22:19:45.600Z,2.53
2019-05-17T22:22:19.012Z,2.23
2019-05-17T22:24:52.435Z,3.17
2019-05-17T22:27:25.857Z,3.27
2019-05-17T22:29:59.366Z,3.23
2019-05-17T22:32:32.776Z,2.47
2019-05-17T22:35:06.841Z,3.10
2019-05-17T22:37:40.256Z,7.00
2019-05-17T22:40:13.756Z,3.47
2019-05-17T22:42:47.168Z,4.33
2019-05-17T22:45:20.587Z,2.70
2019-05-17T22:47:54.007Z,4.17
2019-05-17T22:50:27.445Z,2.57
2019-05-17T22:53:00.862Z,2.90
2019-05-17T22:55:34.918Z,2.67
2019-05-17T22:58:08.323Z,2.70
2019-05-17T23:00:41.755Z,2.47
2019-05-17T23:03:15.171Z,2.43
2019-05-17T23:05:48.645Z,3.17
2019-05-17T23:08:22.056Z,4.80
2019-05-17T23:10:55.491Z,2.80
2019-05-17T23:13:28.968Z,3.30
2019-05-17T23:16:04.147Z,3.00
2019-05-17T23:18:37.560Z,5.27
2019-05-17T23:21:10.992Z,3.23
2019-05-17T23:23:44.411Z,3.77
2019-05-17T23:26:17.846Z,3.50
2019-05-17T23:28:51.243Z,4.83
2019-05-17T23:31:24.685Z,3.57
2019-05-17T23:33:58.089Z,3.80
2019-05-17T23:36:31.523Z,4.83
2019-05-17T23:39:06.371Z,4.03
2019-05-17T23:41:39.799Z,3.40
2019-05-17T23:44:13.223Z,3.50
2019-05-17T23:46:46.663Z,5.00
2019-05-17T23:49:20.075Z,4.37
2019-05-17T23:51:53.499Z,4.40
2019-05-17T23:54:26.911Z,5.53
2019-05-17T23:57:00.402Z,4.63
2019-05-17T23:59:33.819Z,4.03
